Time;durP1;ratioP1;P1;durP2;ratioP2;P2;SDS_P1;SDS_P2;PMS_P1;PMS_P2;Temp;Humidity;BMP_temperature;BMP_pressure;BME280_temperature;BME280_humidity;BME280_pressure;Samples;Min_cycle;Max_cycle;Signal;HPM_P1;HPM_P2
2022/12/09 00:00:33;;;;;;;0.60;0.60;;;;;;;-0.69;85.61;99235.69;4967468;28;20031;-79
2022/12/09 00:02:59;;;;;;;0.50;0.50;;;;;;;-0.66;85.40;99235.72;4967325;29;20019;-78
2022/12/09 00:05:24;;;;;;;0.60;0.60;;;;;;;-0.61;85.28;99245.13;4967257;28;20030;-77
2022/12/09 00:07:49;;;;;;;0.50;0.50;;;;;;;-0.60;85.29;99245.16;4965858;29;20034;-78
2022/12/09 00:10:15;;;;;;;0.50;0.50;;;;;;;-0.60;84.78;99252.81;4966750;28;20050;-77
2022/12/09 00:12:40;;;;;;;0.55;0.55;;;;;;;-0.65;84.24;99257.84;4965901;29;20037;-76
2022/12/09 00:15:06;;;;;;;0.50;0.50;;;;;;;-0.64;84.21;99259.53;4965750;29;20087;-76
2022/12/09 00:17:32;;;;;;;0.60;0.60;;;;;;;-0.70;83.73;99254.31;4966909;28;20050;-76
2022/12/09 00:19:57;;;;;;;0.60;0.60;;;;;;;-0.77;83.39;99242.31;4967184;28;20031;-76
2022/12/09 00:22:25;;;;;;;0.60;0.60;;;;;;;-0.68;83.52;99255.22;4965497;29;20023;-78
2022/12/09 00:24:50;;;;;;;0.60;0.60;;;;;;;-0.75;83.29;99240.63;4965537;29;20092;-77
2022/12/09 00:27:16;;;;;;;0.60;0.60;;;;;;;-0.76;82.66;99244.88;4966794;28;20031;-76
2022/12/09 00:29:41;;;;;;;0.60;0.60;;;;;;;-0.69;82.55;99252.66;4966926;28;20090;-77
2022/12/09 00:32:06;;;;;;;0.60;0.60;;;;;;;-0.68;82.44;99262.88;4966921;28;20038;-77
2022/12/09 00:34:32;;;;;;;0.60;0.60;;;;;;;-0.68;82.84;99250.13;4967013;28;20023;-77
2022/12/09 00:36:57;;;;;;;0.70;0.70;;;;;;;-0.61;82.87;99260.44;4966892;28;20090;-76
2022/12/09 00:39:22;;;;;;;0.50;0.50;;;;;;;-0.61;82.62;99258.75;4966468;28;20023;-77
2022/12/09 00:41:50;;;;;;;0.60;0.60;;;;;;;-0.58;83.57;99247.75;4964850;28;20037;-78
2022/12/09 00:44:15;;;;;;;2.75;2.25;;;;;;;-0.63;83.64;99252.75;4967004;28;20031;-79
2022/12/09 00:46:40;;;;;;;0.50;0.50;;;;;;;-0.54;83.61;99262.25;4967554;28;20038;-78
2022/12/09 00:49:06;;;;;;;0.60;0.60;;;;;;;-0.55;83.37;99263.97;4965943;29;20023;-79
2022/12/09 00:51:31;;;;;;;0.60;0.60;;;;;;;-0.55;83.38;99265.66;4966042;28;20066;-79
2022/12/09 00:53:56;;;;;;;0.60;0.60;;;;;;;-0.53;83.41;99269.09;4968702;29;20038;-78
2022/12/09 00:56:25;;;;;;;0.60;0.60;;;;;;;-0.52;83.01;99271.66;4967915;29;20055;-79
2022/12/09 00:58:50;;;;;;;0.60;0.60;;;;;;;-0.53;83.37;99266.53;4970033;28;20019;-79
2022/12/09 01:01:15;;;;;;;0.50;0.50;;;;;;;-0.53;82.86;99269.09;4969680;28;20033;-79
2022/12/09 01:03:41;;;;;;;0.60;0.60;;;;;;;-0.56;82.79;99248.66;4969821;28;20034;-79
2022/12/09 01:06:08;;;;;;;0.50;0.50;;;;;;;-0.52;82.80;99263.16;4967229;28;20024;-80
2022/12/09 01:08:33;;;;;;;0.60;0.60;;;;;;;-0.59;81.30;99264.72;4966172;28;20352;-77
2022/12/09 01:10:59;;;;;;;0.52;0.52;;;;;;;-0.51;81.95;99265.72;4964901;29;20179;-78
2022/12/09 01:13:24;;;;;;;0.60;0.60;;;;;;;-0.57;82.04;99263.06;4966167;28;20046;-77
2022/12/09 01:15:49;;;;;;;0.60;0.60;;;;;;;-0.44;81.91;99276.03;4966385;28;20059;-77
2022/12/09 01:18:15;;;;;;;0.50;0.50;;;;;;;-0.44;81.75;99273.50;4964881;29;20024;-77
2022/12/09 01:20:40;;;;;;;0.50;0.50;;;;;;;-0.45;82.34;99269.22;4964774;29;20032;-77
2022/12/09 01:23:05;;;;;;;0.70;0.70;;;;;;;-0.42;82.56;99270.16;4966189;28;20035;-77
2022/12/09 01:25:31;;;;;;;0.60;0.60;;;;;;;-0.46;82.65;99270.06;4964799;29;20027;-78
2022/12/09 01:27:56;;;;;;;0.60;0.60;;;;;;;-0.48;82.46;99264.06;4964858;29;20027;-78
2022/12/09 01:30:22;;;;;;;0.60;0.60;;;;;;;-0.40;82.50;99267.63;4966214;29;20027;-78
2022/12/09 01:32:47;;;;;;;0.50;0.50;;;;;;;-0.41;82.97;99271.00;4965045;29;20027;-78
2022/12/09 01:35:12;;;;;;;0.60;0.60;;;;;;;-0.37;82.84;99277.88;4966302;28;20066;-78
2022/12/09 01:37:38;;;;;;;1.13;1.13;;;;;;;-0.37;82.99;99280.44;4965758;28;20031;-78
2022/12/09 01:40:06;;;;;;;0.60;0.60;;;;;;;-0.35;82.97;99266.00;4966090;29;20030;-77
2022/12/09 01:42:33;;;;;;;0.50;0.50;;;;;;;-0.38;83.41;99268.50;4966347;28;20031;-77
2022/12/09 01:45:20;;;;;;;0.70;0.70;;;;;;;-0.35;83.51;99278.75;4964698;29;20051;-78
2022/12/09 01:47:47;;;;;;;0.60;0.60;;;;;;;-0.47;82.83;99271.75;4965922;28;20106;-77
2022/12/09 01:50:14;;;;;;;0.50;0.50;;;;;;;-0.39;82.91;99277.84;4966459;28;20473;-79
2022/12/09 01:52:40;;;;;;;0.50;0.50;;;;;;;-0.42;82.57;99269.28;4965233;28;20142;-79
2022/12/09 01:55:06;;;;;;;0.50;0.50;;;;;;;-0.45;82.78;99275.19;4969476;28;20503;-78
2022/12/09 01:57:33;;;;;;;0.60;0.60;;;;;;;-0.44;83.01;99278.59;4969666;28;20019;-77
2022/12/09 01:59:58;;;;;;;2.92;2.03;;;;;;;-0.53;83.17;99275.03;4969624;28;20031;-77
2022/12/09 02:02:27;;;;;;;0.50;0.50;;;;;;;-0.50;83.13;99287.00;4969641;29;20098;-77
2022/12/09 02:04:53;;;;;;;0.40;0.40;;;;;;;-0.51;82.72;99288.69;4968193;29;20023;-78
2022/12/09 02:07:19;;;;;;;0.55;0.55;;;;;;;-0.52;82.70;99289.53;4969411;28;20027;-77
2022/12/09 02:09:45;;;;;;;0.50;0.50;;;;;;;-0.55;81.91;99279.25;4969438;28;20531;-77
2022/12/09 02:12:14;;;;;;;0.60;0.60;;;;;;;-0.56;81.77;99282.63;4969519;28;20027;-77
2022/12/09 02:14:55;;;;;;;0.60;0.60;;;;;;;-0.56;80.46;99294.53;4969413;28;20117;-76
2022/12/09 02:17:34;;;;;;;0.60;0.60;;;;;;;-0.58;80.68;99284.31;4969093;28;20027;-76
2022/12/09 02:20:17;;;;;;;0.60;0.60;;;;;;;-0.68;81.10;99265.44;4969243;29;20090;-76
2022/12/09 02:22:52;;;;;;;0.50;0.50;;;;;;;-0.52;81.24;99293.75;4969109;28;20031;-76
2022/12/09 02:25:43;;;;;;;0.60;0.60;;;;;;;-0.54;80.69;99293.72;4969210;28;20019;-76
2022/12/09 02:28:21;;;;;;;1.23;1.23;;;;;;;-0.52;80.57;99293.75;4969066;28;20023;-75
2022/12/09 02:30:58;;;;;;;0.50;0.50;;;;;;;-0.50;80.53;99297.19;4968858;29;20023;-75
2022/12/09 02:33:43;;;;;;;0.60;0.60;;;;;;;-0.50;81.31;99290.38;4968925;29;20384;-76
2022/12/09 02:36:15;;;;;;;0.50;0.50;;;;;;;-0.47;80.85;99296.38;4968883;29;20082;-74
2022/12/09 02:38:42;;;;;;;0.60;0.60;;;;;;;-0.45;81.26;99297.28;4968696;28;20082;-74
2022/12/09 02:41:18;;;;;;;0.50;0.50;;;;;;;-0.55;81.68;99292.00;4968642;28;20047;-74
2022/12/09 02:43:48;;;;;;;0.50;0.50;;;;;;;-0.61;79.62;99299.53;4968681;28;20031;-74
2022/12/09 02:46:17;;;;;;;0.90;0.90;;;;;;;-0.58;80.40;99302.16;4968927;28;20054;-75
2022/12/09 02:48:50;;;;;;;0.60;0.60;;;;;;;-0.54;79.68;99305.59;4968630;28;20027;-75
2022/12/09 02:51:19;;;;;;;0.52;0.52;;;;;;;-0.54;80.68;99306.47;4968776;28;20083;-75
2022/12/09 02:53:48;;;;;;;0.50;0.50;;;;;;;-0.52;80.56;99302.28;4968489;28;20055;-75
2022/12/09 02:56:14;;;;;;;0.50;0.50;;;;;;;-0.55;80.09;99303.91;4968467;28;20499;-76
2022/12/09 02:58:40;;;;;;;0.57;0.57;;;;;;;-0.48;79.92;99299.78;4968711;28;20241;-74
2022/12/09 03:01:17;;;;;;;0.60;0.60;;;;;;;-0.45;81.09;99310.03;4968234;29;20510;-75
2022/12/09 03:03:43;;;;;;;0.60;0.60;;;;;;;-0.43;80.77;99309.22;4968476;28;20027;-77
2022/12/09 03:06:15;;;;;;;0.52;0.52;;;;;;;-0.46;80.53;99310.88;4967670;28;20027;-76
2022/12/09 03:08:43;;;;;;;0.50;0.50;;;;;;;-0.50;80.67;99315.88;4968382;28;20035;-76
2022/12/09 03:11:15;;;;;;;0.60;0.60;;;;;;;-0.44;80.82;99316.84;4968084;29;20035;-77
2022/12/09 03:13:49;;;;;;;;;;;;;;;-0.45;80.04;99310.91;4968718;28;20080;-76
2022/12/09 03:16:36;;;;;;;0.60;0.60;;;;;;;-0.43;80.27;99316.03;4967018;29;19910;-75
2022/12/09 03:19:16;;;;;;;0.50;0.50;;;;;;;-0.40;81.15;99319.47;4968108;28;20078;-75
2022/12/09 03:21:46;;;;;;;0.52;0.52;;;;;;;-0.36;81.07;99322.94;4968260;28;20086;-76
2022/12/09 03:24:17;;;;;;;0.52;0.52;;;;;;;-0.37;81.39;99318.69;4966584;29;20027;-75
2022/12/09 03:26:43;;;;;;;0.57;0.57;;;;;;;-0.44;80.59;99321.94;4967697;28;20106;-73
2022/12/09 03:29:16;;;;;;;0.55;0.55;;;;;;;-0.38;80.73;99316.94;4966877;28;20029;-75
2022/12/09 03:31:42;;;;;;;0.60;0.60;;;;;;;-0.36;80.60;99317.84;4967333;28;20031;-76
2022/12/09 03:34:12;;;;;;;0.60;0.60;;;;;;;-0.48;79.76;99313.41;4967860;28;20090;-75
2022/12/09 03:36:40;;;;;;;0.68;0.68;;;;;;;-0.37;80.78;99318.69;4967962;28;20514;-75
2022/12/09 03:39:09;;;;;;;0.60;0.60;;;;;;;-0.38;79.98;99314.41;4967473;28;20042;-74
2022/12/09 03:41:37;;;;;;;0.50;0.50;;;;;;;-0.41;79.63;99315.22;4966483;29;20019;-75
2022/12/09 03:44:11;;;;;;;0.50;0.50;;;;;;;-0.39;78.54;99315.25;4967670;28;20077;-76
2022/12/09 03:46:37;;;;;;;0.52;0.52;;;;;;;-0.30;79.57;99320.50;4968024;28;20031;-76
2022/12/09 03:49:02;;;;;;;0.50;0.50;;;;;;;-0.38;79.43;99311.84;4967406;28;20023;-76
2022/12/09 03:51:35;;;;;;;0.50;0.50;;;;;;;-0.39;79.29;99313.56;4967663;28;20038;-75
2022/12/09 03:54:27;;;;;;;0.50;0.50;;;;;;;-0.35;78.87;99316.16;4967221;28;20037;-74
2022/12/09 03:56:54;;;;;;;;;;;;;;;-0.27;79.15;99322.25;4967868;28;20054;-75
2022/12/09 03:59:22;;;;;;;0.60;0.60;;;;;;;-0.37;79.63;99311.03;4967283;28;19911;-76
2022/12/09 04:01:47;;;;;;;0.60;0.60;;;;;;;-0.36;78.19;99325.50;4966179;29;20034;-75
2022/12/09 04:04:14;;;;;;;0.60;0.60;;;;;;;-0.43;78.41;99318.59;4967073;28;20051;-75
2022/12/09 04:06:40;;;;;;;0.60;0.60;;;;;;;-0.32;79.19;99317.06;4967452;28;20027;-76
2022/12/09 04:09:06;;;;;;;0.50;0.50;;;;;;;-0.35;77.73;99319.56;4966861;28;20031;-75
2022/12/09 04:11:32;;;;;;;0.50;0.50;;;;;;;-0.33;77.30;99323.00;4965977;29;20090;-76
2022/12/09 04:13:57;;;;;;;0.60;0.60;;;;;;;-0.40;77.70;99316.09;4967108;28;20038;-76
2022/12/09 04:16:23;;;;;;;0.60;0.60;;;;;;;-0.34;78.60;99317.88;4966058;28;20023;-76
2022/12/09 04:18:48;;;;;;;0.50;0.50;;;;;;;-0.36;79.29;99317.84;4965681;29;20027;-76
2022/12/09 04:21:14;;;;;;;0.60;0.60;;;;;;;-0.27;79.12;99330.78;4965830;28;20041;-76
2022/12/09 04:23:40;;;;;;;0.50;0.50;;;;;;;-0.31;78.95;99331.56;4966552;28;20494;-75
2022/12/09 04:26:06;;;;;;;0.50;0.50;;;;;;;-0.33;77.94;99330.66;4966788;28;20023;-77
2022/12/09 04:28:31;;;;;;;0.50;0.50;;;;;;;-0.30;78.78;99338.38;4966837;28;20214;-76
2022/12/09 04:30:57;;;;;;;0.57;0.57;;;;;;;-0.31;78.45;99336.66;4966918;28;20027;-76
2022/12/09 04:33:23;;;;;;;0.55;0.55;;;;;;;-0.30;78.68;99342.59;4966618;28;20031;-77
2022/12/09 04:35:49;;;;;;;0.60;0.60;;;;;;;-0.36;78.52;99338.25;4967028;28;20038;-77
2022/12/09 04:38:14;;;;;;;0.52;0.52;;;;;;;-0.36;78.05;99342.47;4966608;28;20023;-77
2022/12/09 04:40:40;;;;;;;0.60;0.60;;;;;;;-0.39;78.93;99341.63;4966658;28;20058;-76
2022/12/09 04:43:05;;;;;;;0.50;0.50;;;;;;;-0.38;79.13;99339.91;4966789;28;20031;-76
2022/12/09 04:45:30;;;;;;;0.60;0.60;;;;;;;-0.33;79.53;99351.06;4966408;28;20033;-77
2022/12/09 04:47:57;;;;;;;0.60;0.60;;;;;;;-0.34;79.66;99351.91;4966425;28;20090;-76
2022/12/09 04:50:22;;;;;;;0.60;0.60;;;;;;;-0.33;80.06;99351.06;4965238;29;20023;-76
2022/12/09 04:52:48;;;;;;;0.50;0.50;;;;;;;-0.40;79.64;99351.78;4966636;28;20042;-77
2022/12/09 04:55:14;;;;;;;0.50;0.50;;;;;;;-0.47;78.76;99353.34;4964763;29;20051;-74
2022/12/09 04:57:40;;;;;;;0.50;0.50;;;;;;;-0.48;78.35;99350.78;4966398;28;20027;-76
2022/12/09 05:00:06;;;;;;;0.60;0.60;;;;;;;-0.53;78.10;99343.03;4966486;28;20038;-76
2022/12/09 05:02:31;;;;;;;0.60;0.60;;;;;;;-0.44;77.95;99358.50;4966214;29;20023;-76
2022/12/09 05:05:00;;;;;;;0.60;0.60;;;;;;;-0.46;77.79;99354.22;4966293;28;20077;-75
2022/12/09 05:07:26;;;;;;;0.60;0.60;;;;;;;-0.44;78.58;99345.75;4965991;28;20031;-76
2022/12/09 05:09:51;;;;;;;0.60;0.60;;;;;;;-0.42;77.84;99361.97;4966037;28;20038;-76
2022/12/09 05:12:16;;;;;;;0.50;0.50;;;;;;;-0.42;77.92;99356.00;4966449;29;20031;-76
2022/12/09 05:14:42;;;;;;;0.55;0.55;;;;;;;-0.32;78.67;99362.13;4966487;28;20023;-76
2022/12/09 05:17:07;;;;;;;0.50;0.50;;;;;;;-0.39;78.60;99363.69;4966248;28;20023;-73
2022/12/09 05:19:32;;;;;;;0.63;0.63;;;;;;;-0.41;77.50;99365.34;4964577;29;20023;-76
2022/12/09 05:21:58;;;;;;;0.50;0.50;;;;;;;-0.43;77.19;99367.88;4966195;28;20122;-76
2022/12/09 05:24:23;;;;;;;0.60;0.60;;;;;;;-0.31;78.38;99371.50;4965753;28;20027;-75
2022/12/09 05:26:49;;;;;;;0.60;0.60;;;;;;;-0.33;78.46;99375.69;4966433;28;20027;-76
2022/12/09 05:29:14;;;;;;;0.50;0.50;;;;;;;-0.30;79.48;99371.53;4968044;29;20023;-76
2022/12/09 05:31:39;;;;;;;0.98;0.98;;;;;;;-0.28;79.30;99374.97;4970185;28;20049;-76
2022/12/09 05:34:05;;;;;;;0.60;0.60;;;;;;;-0.27;79.86;99368.16;4970333;28;20110;-75
2022/12/09 05:36:30;;;;;;;0.60;0.60;;;;;;;-0.26;79.94;99377.56;4970043;29;20050;-75
2022/12/09 05:38:56;;;;;;;0.60;0.60;;;;;;;-0.21;79.85;99386.16;4969929;29;20030;-76
2022/12/09 05:41:22;;;;;;;0.60;0.60;;;;;;;-0.22;79.95;99379.31;4969867;28;20031;-75
2022/12/09 05:43:48;;;;;;;0.50;0.50;;;;;;;-0.22;80.00;99375.94;4968617;29;20042;-76
2022/12/09 05:46:14;;;;;;;0.60;0.60;;;;;;;-0.20;80.22;99382.78;4968817;29;20038;-76
2022/12/09 05:48:39;;;;;;;0.47;0.47;;;;;;;-0.23;80.38;99382.72;4969970;28;20031;-76
2022/12/09 05:51:09;;;;;;;0.50;0.50;;;;;;;-0.27;80.15;99381.78;4970283;28;20023;-75
2022/12/09 05:53:34;;;;;;;0.60;0.60;;;;;;;-0.29;79.90;99378.34;4970137;28;20023;-75
2022/12/09 05:55:59;;;;;;;0.50;0.50;;;;;;;-0.27;80.34;99375.81;4969667;28;20043;-75
2022/12/09 05:58:25;;;;;;;0.55;0.55;;;;;;;-0.29;80.42;99365.59;4968429;29;20023;-74
2022/12/09 06:00:51;;;;;;;0.50;0.50;;;;;;;-0.26;79.46;99377.56;4968900;29;20070;-74
2022/12/09 06:03:16;;;;;;;0.60;0.60;;;;;;;-0.34;79.33;99377.41;4971958;28;20022;-74
2022/12/09 06:05:41;;;;;;;0.50;0.50;;;;;;;-0.35;79.58;99377.38;4970732;28;20027;-75
2022/12/09 06:08:07;;;;;;;0.50;0.50;;;;;;;-0.38;79.29;99380.72;4969522;28;20031;-75
2022/12/09 06:10:33;;;;;;;0.50;0.50;;;;;;;-0.36;79.13;99380.75;4967993;29;20062;-70
2022/12/09 06:12:58;;;;;;;0.60;0.60;;;;;;;-0.31;79.74;99374.91;4967943;29;20039;-67
2022/12/09 06:15:24;;;;;;;0.60;0.60;;;;;;;-0.34;80.15;99385.06;4969498;28;20066;-75
2022/12/09 06:17:50;;;;;;;0.50;0.50;;;;;;;-0.34;79.46;99368.88;4969108;28;20025;-76
2022/12/09 06:20:16;;;;;;;0.60;0.60;;;;;;;-0.35;78.78;99378.22;4969456;28;20106;-76
2022/12/09 06:22:41;;;;;;;0.50;0.50;;;;;;;-0.35;78.76;99374.81;4969045;28;20081;-74
2022/12/09 06:25:07;;;;;;;0.55;0.55;;;;;;;-0.36;77.96;99376.50;4969150;28;20420;-76
2022/12/09 06:27:33;;;;;;;0.60;0.60;;;;;;;-0.35;78.20;99369.72;4967646;29;20050;-76
2022/12/09 06:29:58;;;;;;;0.60;0.60;;;;;;;-0.36;77.80;99380.75;4967688;29;20027;-76
2022/12/09 06:32:24;;;;;;;0.60;0.60;;;;;;;-0.23;78.81;99384.38;4968853;29;20467;-75
2022/12/09 06:34:49;;;;;;;0.60;0.60;;;;;;;-0.30;79.03;99381.72;4968823;28;20038;-74
2022/12/09 06:37:15;;;;;;;0.60;0.60;;;;;;;-0.18;79.74;99390.44;4968706;28;20462;-73
2022/12/09 06:39:40;;;;;;;0.50;0.50;;;;;;;-0.28;79.60;99389.41;4968324;28;20019;-75
2022/12/09 06:42:06;;;;;;;0.68;0.68;;;;;;;-0.25;79.35;99394.56;4968568;28;20028;-70
2022/12/09 06:44:31;;;;;;;0.60;0.60;;;;;;;-0.17;80.04;99392.16;4968659;28;20059;-74
2022/12/09 06:46:57;;;;;;;0.60;0.60;;;;;;;-0.21;79.99;99395.50;4968750;28;20030;-73
2022/12/09 06:49:22;;;;;;;0.50;0.50;;;;;;;-0.24;79.99;99400.53;4968627;28;20099;-73
2022/12/09 06:51:48;;;;;;;0.50;0.50;;;;;;;-0.22;79.85;99402.28;4968590;28;20094;-73
2022/12/09 06:54:13;;;;;;;0.60;0.60;;;;;;;-0.13;80.24;99407.56;4968852;28;20031;-72
2022/12/09 06:56:39;;;;;;;0.60;0.60;;;;;;;-0.21;79.40;99415.91;4968500;29;20138;-74
2022/12/09 06:59:06;;;;;;;0.60;0.60;;;;;;;-0.14;80.04;99410.94;4967996;28;20056;-75
2022/12/09 07:01:31;;;;;;;0.60;0.60;;;;;;;-0.18;80.29;99411.72;4968759;28;20019;-74
2022/12/09 07:03:56;;;;;;;0.60;0.60;;;;;;;-0.19;79.58;99419.34;4968354;28;20086;-73
2022/12/09 07:06:42;;;;;;;0.60;0.60;;;;;;;-0.13;80.22;99417.75;4968547;28;20031;-74
2022/12/09 07:09:13;;;;;;;0.57;0.57;;;;;;;-0.14;80.60;99402.41;4968326;28;20542;-74
2022/12/09 07:11:41;;;;;;;;;;;;;;;-0.09;80.70;99421.25;4968920;28;20066;-73
2022/12/09 07:14:07;;;;;;;0.60;0.60;;;;;;;-0.17;80.83;99415.13;4968174;28;19974;-73
2022/12/09 07:16:33;;;;;;;0.60;0.60;;;;;;;-0.19;80.53;99425.28;4968284;28;20355;-74
2022/12/09 07:18:59;;;;;;;0.50;0.50;;;;;;;-0.18;79.77;99424.50;4968159;28;20042;-74
2022/12/09 07:21:25;;;;;;;0.60;0.60;;;;;;;-0.22;78.99;99432.88;4968437;28;20027;-74
2022/12/09 07:23:50;;;;;;;0.50;0.50;;;;;;;-0.20;79.25;99432.91;4968081;29;20115;-74
2022/12/09 07:26:16;;;;;;;0.50;0.50;;;;;;;-0.19;79.75;99429.56;4967870;28;20131;-73
2022/12/09 07:28:42;;;;;;;0.50;0.50;;;;;;;-0.21;78.31;99432.09;4965540;29;20151;-74
2022/12/09 07:31:17;;;;;;;0.50;0.50;;;;;;;-0.16;79.06;99429.63;4967055;28;20020;-73
2022/12/09 07:33:42;;;;;;;0.60;0.60;;;;;;;-0.17;79.92;99428.75;4968071;28;20432;-73
2022/12/09 07:36:08;;;;;;;0.60;0.60;;;;;;;-0.18;80.30;99439.78;4966417;29;20174;-75
2022/12/09 07:38:33;;;;;;;0.60;0.60;;;;;;;-0.22;79.60;99440.53;4966791;29;20027;-74
2022/12/09 07:41:07;;;;;;;0.55;0.55;;;;;;;-0.26;79.08;99446.44;4967591;29;20435;-73
2022/12/09 07:43:33;;;;;;;0.60;0.60;;;;;;;-0.21;79.15;99441.41;4968028;28;20028;-73
2022/12/09 07:46:03;;;;;;;0.50;0.50;;;;;;;-0.16;79.76;99447.47;4967467;28;20097;-74
2022/12/09 07:48:29;;;;;;;0.60;0.60;;;;;;;-0.18;79.83;99449.13;4967755;28;20033;-75
2022/12/09 07:50:59;;;;;;;0.60;0.60;;;;;;;-0.13;80.07;99453.47;4967115;28;20388;-74
2022/12/09 07:53:24;;;;;;;0.50;0.50;;;;;;;-0.11;80.48;99456.06;4966328;29;20023;-73
2022/12/09 07:55:50;;;;;;;0.50;0.50;;;;;;;-0.19;80.01;99455.91;4966030;29;20459;-73
2022/12/09 07:58:15;;;;;;;0.50;0.50;;;;;;;-0.14;80.25;99448.34;4967247;29;20019;-73
2022/12/09 08:00:40;;;;;;;0.57;0.57;;;;;;;-0.11;80.39;99453.50;4966329;29;20019;-73
2022/12/09 08:03:06;;;;;;;0.50;0.50;;;;;;;-0.08;80.72;99461.22;4967398;28;20054;-73
2022/12/09 08:05:31;;;;;;;0.60;0.60;;;;;;;-0.07;80.86;99460.41;4966086;29;20030;-74
2022/12/09 08:07:56;;;;;;;0.60;0.60;;;;;;;-0.03;81.03;99467.28;4967128;28;20020;-74
2022/12/09 08:10:21;;;;;;;0.52;0.52;;;;;;;-0.02;81.09;99461.34;4967097;28;20027;-74
2022/12/09 08:12:47;;;;;;;0.50;0.50;;;;;;;-0.13;81.11;99450.94;4967531;28;20503;-74
2022/12/09 08:15:12;;;;;;;0.50;0.50;;;;;;;-0.05;80.84;99468.94;4967190;28;20058;-74
2022/12/09 08:17:38;;;;;;;0.60;0.60;;;;;;;-0.09;80.55;99471.41;4967244;28;20051;-73
2022/12/09 08:20:04;;;;;;;0.60;0.60;;;;;;;-0.07;80.68;99478.28;4967086;28;20027;-74
2022/12/09 08:22:29;;;;;;;0.60;0.60;;;;;;;-0.08;79.68;99478.25;4967119;28;20087;-74
2022/12/09 08:24:54;;;;;;;0.60;0.60;;;;;;;-0.03;80.29;99481.72;4966981;29;20034;-74
2022/12/09 08:27:20;;;;;;;0.50;0.50;;;;;;;-0.05;80.50;99485.97;4965283;29;20023;-74
2022/12/09 08:29:45;;;;;;;0.50;0.50;;;;;;;-0.01;80.80;99486.06;4966987;29;20030;-74
2022/12/09 08:32:10;;;;;;;0.60;0.60;;;;;;;-0.05;80.64;99491.06;4966853;28;20106;-74
2022/12/09 08:34:36;;;;;;;0.50;0.50;;;;;;;0.02;80.89;99503.09;4966986;29;20023;-75
2022/12/09 08:37:01;;;;;;;0.50;0.50;;;;;;;-0.05;80.56;99501.28;4966878;28;20031;-75
2022/12/09 08:39:26;;;;;;;0.50;0.50;;;;;;;-0.10;80.29;99487.56;4965070;29;20020;-73
2022/12/09 08:41:52;;;;;;;0.60;0.60;;;;;;;-0.02;80.88;99503.88;4966895;28;20427;-74
2022/12/09 08:44:19;;;;;;;0.60;0.60;;;;;;;-0.03;80.73;99503.00;4966600;28;20053;-74
2022/12/09 08:46:46;;;;;;;0.50;0.50;;;;;;;-0.10;80.54;99498.63;4966654;29;20027;-75
2022/12/09 08:49:16;;;;;;;0.60;0.60;;;;;;;-0.02;80.99;99509.81;4966142;29;20038;-74
2022/12/09 08:51:42;;;;;;;0.60;0.60;;;;;;;0.01;81.16;99510.72;4966643;28;20027;-73
2022/12/09 08:54:08;;;;;;;0.57;0.57;;;;;;;-0.04;80.83;99503.84;4966718;28;20023;-74
2022/12/09 08:56:33;;;;;;;0.50;0.50;;;;;;;-0.04;80.83;99502.97;4964908;29;20467;-74
2022/12/09 08:58:59;;;;;;;0.60;0.60;;;;;;;-0.15;80.80;99503.63;4966548;28;20506;-74
2022/12/09 09:01:31;;;;;;;0.50;0.50;;;;;;;-0.15;80.94;99503.63;4966303;28;20020;-73
2022/12/09 09:03:57;;;;;;;;;;;;;;;-0.10;81.17;99505.41;4966457;28;20055;-73
2022/12/09 09:06:22;;;;;;;0.70;0.70;;;;;;;-0.16;81.04;99506.16;4966320;28;19910;-74
2022/12/09 09:08:47;;;;;;;0.55;0.55;;;;;;;-0.17;80.85;99504.41;4965076;29;20094;-74
2022/12/09 09:11:16;;;;;;;0.60;0.60;;;;;;;-0.14;80.67;99507.03;4966218;29;20023;-74
2022/12/09 09:13:43;;;;;;;0.60;0.60;;;;;;;-0.11;81.21;99511.34;4965071;29;20074;-74
2022/12/09 09:16:11;;;;;;;0.60;0.60;;;;;;;-0.11;80.86;99503.69;4966241;28;20162;-74
2022/12/09 09:18:36;;;;;;;1.50;1.42;;;;;;;-0.19;81.00;99509.50;4966236;28;20106;-74
2022/12/09 09:21:02;;;;;;;0.60;0.60;;;;;;;-0.29;79.71;99516.06;4966641;28;20034;-74
2022/12/09 09:23:27;;;;;;;0.60;0.60;;;;;;;-0.32;79.84;99517.72;4966033;28;20472;-74
2022/12/09 09:25:52;;;;;;;0.60;0.60;;;;;;;-0.29;80.47;99521.19;4966038;28;20042;-67
2022/12/09 09:28:18;;;;;;;0.50;0.50;;;;;;;-0.23;80.87;99517.91;4965892;28;20306;-74
2022/12/09 09:30:44;;;;;;;0.60;0.60;;;;;;;-0.16;81.21;99514.66;4966317;28;20024;-75
2022/12/09 09:33:09;;;;;;;0.57;0.57;;;;;;;-0.10;81.41;99519.03;4966115;28;20039;-74
2022/12/09 09:35:35;;;;;;;0.60;0.60;;;;;;;-0.07;81.45;99516.56;4966022;29;20028;-75
2022/12/09 09:38:00;;;;;;;0.50;0.50;;;;;;;-0.05;80.91;99522.53;4966069;28;20026;-74
2022/12/09 09:40:28;;;;;;;0.50;0.50;;;;;;;-0.11;80.38;99519.00;4965823;29;20113;-74
2022/12/09 09:42:56;;;;;;;0.50;0.50;;;;;;;-0.08;80.26;99516.53;4966211;28;20390;-76
2022/12/09 09:45:23;;;;;;;0.60;0.60;;;;;;;0.04;81.03;99521.00;4966014;28;20058;-75
2022/12/09 09:47:48;;;;;;;0.50;0.50;;;;;;;0.10;81.19;99524.53;4964502;29;20514;-75
2022/12/09 09:50:32;;;;;;;0.60;0.60;;;;;;;0.19;81.13;99528.13;4965946;28;20036;-75
2022/12/09 09:53:01;;;;;;;1.05;1.05;;;;;;;0.24;81.32;99521.38;4966091;29;20043;-75
2022/12/09 09:55:43;;;;;;;0.50;0.50;;;;;;;0.18;81.09;99526.38;4965486;28;20082;-75
2022/12/09 09:58:17;;;;;;;0.50;0.50;;;;;;;0.10;81.27;99516.00;4966194;28;20055;-75
2022/12/09 10:00:47;;;;;;;0.60;0.60;;;;;;;0.16;81.20;99521.25;4965764;28;20511;-75
2022/12/09 10:03:36;;;;;;;0.60;0.60;;;;;;;0.15;81.24;99522.09;4966179;28;20088;-75
2022/12/09 10:06:10;;;;;;;0.50;0.50;;;;;;;0.06;80.99;99521.91;4965791;29;20055;-75
2022/12/09 10:08:57;;;;;;;0.60;0.60;;;;;;;-0.04;80.92;99525.94;4965521;28;20039;-75
2022/12/09 10:11:53;;;;;;;0.50;0.50;;;;;;;0.02;81.16;99532.88;4965501;28;20027;-75
2022/12/09 10:15:02;;;;;;;0.60;0.60;;;;;;;0.02;81.51;99535.44;4965877;28;20023;-75
2022/12/09 10:17:49;;;;;;;0.60;0.60;;;;;;;0.01;81.23;99534.56;4928347;29;20111;-75
2022/12/09 10:20:20;;;;;;;0.60;0.60;;;;;;;-0.01;81.03;99537.09;4928525;29;20039;-75
2022/12/09 10:22:54;;;;;;;0.70;0.70;;;;;;;0.01;81.27;99542.22;4928654;29;20646;-74
2022/12/09 10:25:24;;;;;;;0.55;0.55;;;;;;;0.02;81.12;99550.75;4928472;29;20127;-74
2022/12/09 10:28:15;;;;;;;0.60;0.60;;;;;;;0.03;80.94;99552.47;4928361;29;20051;-73
2022/12/09 10:30:41;;;;;;;0.60;0.60;;;;;;;-0.03;80.55;99554.06;4923106;29;20087;-74
2022/12/09 10:33:11;;;;;;;0.50;0.50;;;;;;;-0.02;79.80;99553.22;4928074;29;20504;-75
2022/12/09 10:35:36;;;;;;;0.52;0.52;;;;;;;0.11;80.87;99551.78;4928202;29;20036;-74
2022/12/09 10:38:10;;;;;;;0.50;0.50;;;;;;;0.17;81.17;99555.28;4928199;29;20055;-74
2022/12/09 10:40:45;;;;;;;0.60;0.60;;;;;;;0.26;81.12;99562.28;4928015;29;20032;-75
2022/12/09 10:43:43;;;;;;;0.60;0.60;;;;;;;0.31;81.08;99573.44;4929047;29;20027;-76
2022/12/09 10:46:14;;;;;;;0.60;0.60;;;;;;;0.26;81.24;99569.97;4912472;29;20035;-77
2022/12/09 10:48:42;;;;;;;0.60;0.60;;;;;;;0.20;81.21;99574.09;4928354;29;20038;-76
2022/12/09 10:51:13;;;;;;;0.50;0.50;;;;;;;0.16;81.59;99577.41;4944296;29;20399;-76
2022/12/09 10:53:49;;;;;;;0.60;0.60;;;;;;;0.16;81.86;99574.84;4969309;29;20094;-76
2022/12/09 10:56:25;;;;;;;0.60;0.60;;;;;;;0.21;82.05;99573.25;4969617;28;20062;-77
2022/12/09 10:59:12;;;;;;;0.50;0.50;;;;;;;0.19;81.86;99580.00;4969523;28;20091;-76
2022/12/09 11:02:22;;;;;;;0.50;0.50;;;;;;;0.30;82.09;99575.16;4968225;29;20097;-75
2022/12/09 11:04:48;;;;;;;0.55;0.55;;;;;;;0.38;82.04;99575.31;4965717;29;20035;-74
2022/12/09 11:07:16;;;;;;;0.50;0.50;;;;;;;0.40;81.94;99573.63;4969172;28;20027;-75
2022/12/09 11:09:45;;;;;;;0.60;0.60;;;;;;;0.40;81.96;99580.44;4968458;28;20031;-75
2022/12/09 11:12:28;;;;;;;0.60;0.60;;;;;;;0.39;82.20;99566.78;4967447;29;20109;-74
2022/12/09 11:15:03;;;;;;;0.50;0.50;;;;;;;0.56;82.25;99568.81;4968470;28;20185;-76
2022/12/09 11:17:34;;;;;;;0.50;0.50;;;;;;;0.62;82.62;99563.84;4968544;28;20118;-76
2022/12/09 11:20:20;;;;;;;0.65;0.65;;;;;;;0.95;82.63;99570.38;4968271;28;20035;-76
2022/12/09 11:22:59;;;;;;;0.60;0.60;;;;;;;1.50;80.83;99576.38;4968368;28;20058;-76
2022/12/09 11:25:31;;;;;;;0.60;0.60;;;;;;;1.52;79.65;99569.56;4967298;28;20039;-76
2022/12/09 11:28:14;;;;;;;0.60;0.60;;;;;;;1.35;79.48;99571.88;4967164;28;20030;-76
2022/12/09 11:30:49;;;;;;;0.50;0.50;;;;;;;0.98;79.64;99575.53;4965543;29;20039;-76
2022/12/09 11:33:40;;;;;;;0.60;0.60;;;;;;;0.74;80.07;99574.28;4968293;29;20031;-75
2022/12/09 11:36:27;;;;;;;0.45;0.45;;;;;;;0.52;80.45;99570.44;4967982;28;20023;-77
2022/12/09 11:39:14;;;;;;;0.60;0.60;;;;;;;0.35;80.32;99570.13;4967811;28;20023;-76
2022/12/09 11:44:35;;;;;;;0.60;0.60;;;;;;;0.02;80.87;99586.47;4968008;29;20042;-76
2022/12/09 11:47:12;;;;;;;0.60;0.60;;;;;;;-0.20;81.03;99575.78;4967928;28;20546;-75